sensor_id;sensor_type;location;lat;lon;timestamp;pressure;altitude;pressure_sealevel;temperature;humidity
22241;BME280;11289;52.524;13.694;2022-10-30T00:00:14;101340.34;;;14.13;84.24
22241;BME280;11289;52.524;13.694;2022-10-30T00:02:39;101349.06;;;14.12;84.14
22241;BME280;11289;52.524;13.694;2022-10-30T00:05:05;101348.22;;;14.11;83.84
22241;BME280;11289;52.524;13.694;2022-10-30T00:07:31;101327.75;;;13.98;83.91
22241;BME280;11289;52.524;13.694;2022-10-30T00:09:56;101339.91;;;14.02;83.62
22241;BME280;11289;52.524;13.694;2022-10-30T00:12:21;101328.78;;;13.93;83.69
22241;BME280;11289;52.524;13.694;2022-10-30T00:14:47;101336.13;;;13.98;83.72
22241;BME280;11289;52.524;13.694;2022-10-30T00:17:12;101333.69;;;13.97;83.56
22241;BME280;11289;52.524;13.694;2022-10-30T00:19:37;101331.91;;;13.92;83.57
22241;BME280;11289;52.524;13.694;2022-10-30T00:22:03;101336.19;;;13.89;83.88
22241;BME280;11289;52.524;13.694;2022-10-30T00:24:28;101334.56;;;13.88;83.84
22241;BME280;11289;52.524;13.694;2022-10-30T00:26:54;101331.63;;;13.85;84.07
22241;BME280;11289;52.524;13.694;2022-10-30T00:29:19;101331.63;;;13.85;83.95
22241;BME280;11289;52.524;13.694;2022-10-30T00:31:47;101320.16;;;13.78;83.88
22241;BME280;11289;52.524;13.694;2022-10-30T00:34:13;101326.53;;;13.78;83.92
22241;BME280;11289;52.524;13.694;2022-10-30T00:36:38;101328.53;;;13.78;83.76
22241;BME280;11289;52.524;13.694;2022-10-30T00:39:04;101317.06;;;13.70;83.93
22241;BME280;11289;52.524;13.694;2022-10-30T00:41:30;101317.06;;;13.70;84.15
22241;BME280;11289;52.524;13.694;2022-10-30T00:43:55;101320.69;;;13.71;84.08
22241;BME280;11289;52.524;13.694;2022-10-30T00:46:34;101316.94;;;13.67;84.06
22241;BME280;11289;52.524;13.694;2022-10-30T00:49:07;101305.81;;;13.58;83.98
22241;BME280;11289;52.524;13.694;2022-10-30T00:51:34;101307.44;;;13.59;84.02
22241;BME280;11289;52.524;13.694;2022-10-30T00:54:02;101313.16;;;13.63;83.95
22241;BME280;11289;52.524;13.694;2022-10-30T00:56:29;101303.19;;;13.53;83.77
22241;BME280;11289;52.524;13.694;2022-10-30T00:58:58;101316.63;;;13.60;83.68
22241;BME280;11289;52.524;13.694;2022-10-30T01:01:27;101311.56;;;13.53;83.81
22241;BME280;11289;52.524;13.694;2022-10-30T01:03:57;101309.91;;;13.52;83.37
22241;BME280;11289;52.524;13.694;2022-10-30T01:06:25;101303.22;;;13.44;83.33
22241;BME280;11289;52.524;13.694;2022-10-30T01:08:52;101305.69;;;13.46;83.31
22241;BME280;11289;52.524;13.694;2022-10-30T01:11:19;101299.47;;;13.40;83.43
22241;BME280;11289;52.524;13.694;2022-10-30T01:13:46;101291.25;;;13.44;83.44
22241;BME280;11289;52.524;13.694;2022-10-30T01:21:46;101287.66;;;13.34;83.63
22241;BME280;11289;52.524;13.694;2022-10-30T01:24:35;101281.91;;;13.31;83.57
22241;BME280;11289;52.524;13.694;2022-10-30T01:27:27;101268.16;;;13.26;83.92
22241;BME280;11289;52.524;13.694;2022-10-30T01:30:09;101277.34;;;13.26;83.64
22241;BME280;11289;52.524;13.694;2022-10-30T01:32:55;101281.28;;;13.25;83.66
22241;BME280;11289;52.524;13.694;2022-10-30T01:35:31;101274.59;;;13.17;83.35
22241;BME280;11289;52.524;13.694;2022-10-30T01:38:26;101261.97;;;13.11;83.51
22241;BME280;11289;52.524;13.694;2022-10-30T01:40:53;101264.09;;;13.14;83.72
22241;BME280;11289;52.524;13.694;2022-10-30T01:43:19;101243.34;;;12.94;83.57
22241;BME280;11289;52.524;13.694;2022-10-30T01:54:36;101244.47;;;12.93;83.25
22241;BME280;11289;52.524;13.694;2022-10-30T01:57:07;101254.94;;;12.96;83.17
22241;BME280;11289;52.524;13.694;2022-10-30T01:59:41;101243.34;;;12.85;83.19
22241;BME280;11289;52.524;13.694;2022-10-30T02:02:09;101236.47;;;12.83;83.17
22241;BME280;11289;52.524;13.694;2022-10-30T02:04:35;101239.72;;;12.85;83.10
22241;BME280;11289;52.524;13.694;2022-10-30T02:07:00;101248.09;;;12.85;83.22
22241;BME280;11289;52.524;13.694;2022-10-30T02:09:26;101226.81;;;12.71;82.86
22241;BME280;11289;52.524;13.694;2022-10-30T02:11:52;101234.19;;;12.76;83.01
22241;BME280;11289;52.524;13.694;2022-10-30T02:14:28;101222.91;;;12.64;83.44
22241;BME280;11289;52.524;13.694;2022-10-30T02:16:57;101222.41;;;12.62;83.33
22241;BME280;11289;52.524;13.694;2022-10-30T02:19:24;101221.13;;;12.59;83.29
22241;BME280;11289;52.524;13.694;2022-10-30T02:21:50;101228.81;;;12.62;83.05
22241;BME280;11289;52.524;13.694;2022-10-30T02:24:16;101222.06;;;12.54;82.96
22241;BME280;11289;52.524;13.694;2022-10-30T02:26:41;101228.81;;;12.62;83.06
22241;BME280;11289;52.524;13.694;2022-10-30T02:29:07;101226.03;;;12.62;83.01
22241;BME280;11289;52.524;13.694;2022-10-30T02:31:32;101208.34;;;12.49;83.02
22241;BME280;11289;52.524;13.694;2022-10-30T02:33:58;101221.44;;;12.58;82.75
22241;BME280;11289;52.524;13.694;2022-10-30T02:36:23;101225.38;;;12.57;82.78
22241;BME280;11289;52.524;13.694;2022-10-30T02:38:49;101194.44;;;12.41;82.65
22241;BME280;11289;52.524;13.694;2022-10-30T02:41:14;101209.81;;;12.47;82.55
22241;BME280;11289;52.524;13.694;2022-10-30T02:43:40;101214.25;;;12.48;82.71
22241;BME280;11289;52.524;13.694;2022-10-30T02:46:05;101211.28;;;12.44;82.67
22241;BME280;11289;52.524;13.694;2022-10-30T02:48:31;101211.78;;;12.38;82.38
22241;BME280;11289;52.524;13.694;2022-10-30T02:51:01;101225.53;;;12.43;82.32
22241;BME280;11289;52.524;13.694;2022-10-30T02:53:27;101217.38;;;12.38;82.34
22241;BME280;11289;52.524;13.694;2022-10-30T02:55:52;101219.63;;;12.35;82.49
22241;BME280;11289;52.524;13.694;2022-10-30T02:58:17;101212.59;;;12.29;82.73
22241;BME280;11289;52.524;13.694;2022-10-30T03:00:43;101207.69;;;12.26;82.64
22241;BME280;11289;52.524;13.694;2022-10-30T03:03:08;101200.00;;;12.23;82.78
22241;BME280;11289;52.524;13.694;2022-10-30T03:05:33;101214.91;;;12.27;82.66
22241;BME280;11289;52.524;13.694;2022-10-30T03:07:59;101207.03;;;12.21;82.53
22241;BME280;11289;52.524;13.694;2022-10-30T03:10:24;101184.78;;;12.03;82.75
22241;BME280;11289;52.524;13.694;2022-10-30T03:12:50;101210.31;;;12.23;83.03
22241;BME280;11289;52.524;13.694;2022-10-30T03:15:15;101188.22;;;12.00;82.93
22241;BME280;11289;52.524;13.694;2022-10-30T03:17:41;101189.53;;;12.02;82.97
22241;BME280;11289;52.524;13.694;2022-10-30T03:20:06;101213.75;;;12.11;82.99
22241;BME280;11289;52.524;13.694;2022-10-30T03:22:32;101222.94;;;12.11;83.05
22241;BME280;11289;52.524;13.694;2022-10-30T03:24:57;101225.72;;;12.11;83.10
22241;BME280;11289;52.524;13.694;2022-10-30T03:27:23;101217.19;;;12.08;83.08
22241;BME280;11289;52.524;13.694;2022-10-30T03:29:48;101194.25;;;11.93;83.16
22241;BME280;11289;52.524;13.694;2022-10-30T03:32:13;101225.38;;;12.04;83.09
22241;BME280;11289;52.524;13.694;2022-10-30T03:34:39;101223.88;;;12.07;83.18
22241;BME280;11289;52.524;13.694;2022-10-30T03:37:05;101227.84;;;12.06;83.21
22241;BME280;11289;52.524;13.694;2022-10-30T03:39:30;101225.72;;;12.11;83.51
22241;BME280;11289;52.524;13.694;2022-10-30T03:41:55;101219.31;;;12.11;83.93
22241;BME280;11289;52.524;13.694;2022-10-30T03:44:21;101209.81;;;12.12;84.08
22241;BME280;11289;52.524;13.694;2022-10-30T03:46:46;101211.47;;;12.13;84.57
22241;BME280;11289;52.524;13.694;2022-10-30T03:49:12;101196.72;;;12.04;85.39
22241;BME280;11289;52.524;13.694;2022-10-30T03:51:37;101186.91;;;11.97;85.31
22241;BME280;11289;52.524;13.694;2022-10-30T03:54:02;101210.81;;;12.16;85.62
22241;BME280;11289;52.524;13.694;2022-10-30T03:56:28;101214.91;;;12.18;85.68
22241;BME280;11289;52.524;13.694;2022-10-30T03:58:53;101200.16;;;12.09;85.83
22241;BME280;11289;52.524;13.694;2022-10-30T04:01:19;101209.16;;;12.24;86.31
22241;BME280;11289;52.524;13.694;2022-10-30T04:03:44;101190.50;;;12.15;86.34
22241;BME280;11289;52.524;13.694;2022-10-30T04:06:09;101204.59;;;12.28;86.81
22241;BME280;11289;52.524;13.694;2022-10-30T04:08:35;101203.78;;;12.27;87.68
22241;BME280;11289;52.524;13.694;2022-10-30T04:11:00;101218.03;;;12.34;87.61
22241;BME280;11289;52.524;13.694;2022-10-30T04:13:26;101217.03;;;12.30;87.56
22241;BME280;11289;52.524;13.694;2022-10-30T04:15:51;101195.09;;;12.20;87.52
22241;BME280;11289;52.524;13.694;2022-10-30T04:18:17;101197.38;;;12.18;88.40
22241;BME280;11289;52.524;13.694;2022-10-30T04:20:44;101223.41;;;12.31;88.29
22241;BME280;11289;52.524;13.694;2022-10-30T04:23:15;101203.28;;;12.25;87.96
22241;BME280;11289;52.524;13.694;2022-10-30T04:25:42;101218.97;;;12.39;87.76
22241;BME280;11289;52.524;13.694;2022-10-30T04:28:08;101201.66;;;12.33;87.99
22241;BME280;11289;52.524;13.694;2022-10-30T04:30:34;101214.41;;;12.43;87.68
22241;BME280;11289;52.524;13.694;2022-10-30T04:33:02;101210.16;;;12.28;87.75
22241;BME280;11289;52.524;13.694;2022-10-30T04:35:30;101236.19;;;12.41;87.52
22241;BME280;11289;52.524;13.694;2022-10-30T04:38:01;101241.09;;;12.44;87.41
22241;BME280;11289;52.524;13.694;2022-10-30T04:40:33;101239.63;;;12.46;87.46
22241;BME280;11289;52.524;13.694;2022-10-30T04:42:59;101238.00;;;12.45;87.58
22241;BME280;11289;52.524;13.694;2022-10-30T04:45:24;101239.31;;;12.48;87.17
22241;BME280;11289;52.524;13.694;2022-10-30T04:47:50;101213.25;;;12.35;87.26
22241;BME280;11289;52.524;13.694;2022-10-30T04:50:16;101225.72;;;12.46;87.22
22241;BME280;11289;52.524;13.694;2022-10-30T04:52:42;101211.28;;;12.35;87.20
22241;BME280;11289;52.524;13.694;2022-10-30T04:55:09;101221.44;;;12.49;87.08
22241;BME280;11289;52.524;13.694;2022-10-30T04:57:35;101208.66;;;12.48;87.03
22241;BME280;11289;52.524;13.694;2022-10-30T05:00:06;101205.88;;;12.48;87.16
22241;BME280;11289;52.524;13.694;2022-10-30T05:02:34;101192.97;;;12.34;86.73
22241;BME280;11289;52.524;13.694;2022-10-30T05:05:00;101209.34;;;12.45;86.52
22241;BME280;11289;52.524;13.694;2022-10-30T05:07:27;101215.38;;;12.47;86.53
22241;BME280;11289;52.524;13.694;2022-10-30T05:09:52;101213.25;;;12.44;86.21
22241;BME280;11289;52.524;13.694;2022-10-30T05:12:17;101196.72;;;12.30;86.09
22241;BME280;11289;52.524;13.694;2022-10-30T05:14:43;101217.19;;;12.43;86.06
22241;BME280;11289;52.524;13.694;2022-10-30T05:17:10;101190.00;;;12.31;85.94
22241;BME280;11289;52.524;13.694;2022-10-30T05:19:35;101213.59;;;12.42;86.30
22241;BME280;11289;52.524;13.694;2022-10-30T05:22:00;101193.28;;;12.33;86.21
22241;BME280;11289;52.524;13.694;2022-10-30T05:24:26;101204.09;;;12.34;86.47
22241;BME280;11289;52.524;13.694;2022-10-30T05:26:51;101210.00;;;12.42;86.38
22241;BME280;11289;52.524;13.694;2022-10-30T05:29:16;101205.91;;;12.39;86.20
22241;BME280;11289;52.524;13.694;2022-10-30T05:31:42;101184.28;;;12.27;86.25
22241;BME280;11289;52.524;13.694;2022-10-30T05:34:07;101207.22;;;12.42;86.32
22241;BME280;11289;52.524;13.694;2022-10-30T05:36:52;101208.50;;;12.44;86.44
22241;BME280;11289;52.524;13.694;2022-10-30T05:43:01;101134.34;;;12.13;86.37
22241;BME280;11289;52.524;13.694;2022-10-30T05:46:04;101163.94;;;12.35;86.45
22241;BME280;11289;52.524;13.694;2022-10-30T05:48:46;101160.06;;;12.19;86.61
22241;BME280;11289;52.524;13.694;2022-10-30T05:51:15;101140.72;;;12.05;87.13
22241;BME280;11289;52.524;13.694;2022-10-30T05:53:51;101168.22;;;12.24;87.59
22241;BME280;11289;52.524;13.694;2022-10-30T05:56:37;101196.06;;;12.42;87.94
22241;BME280;11289;52.524;13.694;2022-10-30T05:59:07;101133.88;;;12.11;88.07
22241;BME280;11289;52.524;13.694;2022-10-30T06:01:40;101132.22;;;12.10;88.16
22241;BME280;11289;52.524;13.694;2022-10-30T06:04:08;101144.16;;;12.11;88.16
22241;BME280;11289;52.524;13.694;2022-10-30T06:06:41;101174.63;;;12.25;88.51
22241;BME280;11289;52.524;13.694;2022-10-30T06:09:13;101152.03;;;12.17;89.17
22241;BME280;11289;52.524;13.694;2022-10-30T06:11:43;101120.44;;;12.05;89.37
22241;BME280;11289;52.524;13.694;2022-10-30T06:14:18;101150.22;;;12.30;89.20
22241;BME280;11289;52.524;13.694;2022-10-30T06:16:48;101152.66;;;12.32;88.95
22241;BME280;11289;52.524;13.694;2022-10-30T06:19:39;101145.31;;;12.27;88.70
22241;BME280;11289;52.524;13.694;2022-10-30T06:22:06;101141.03;;;12.21;88.73
22241;BME280;11289;52.524;13.694;2022-10-30T06:24:53;101131.09;;;12.11;88.70
22241;BME280;11289;52.524;13.694;2022-10-30T06:30:01;101155.63;;;12.09;89.07
22241;BME280;11289;52.524;13.694;2022-10-30T06:32:47;101228.97;;;12.48;88.94
22241;BME280;11289;52.524;13.694;2022-10-30T06:35:23;101156.94;;;12.12;89.45
22241;BME280;11289;52.524;13.694;2022-10-30T06:37:51;101172.97;;;12.15;89.72
22241;BME280;11289;52.524;13.694;2022-10-30T06:40:17;101158.91;;;12.11;89.90
22241;BME280;11289;52.524;13.694;2022-10-30T06:42:49;101180.84;;;12.22;90.69
22241;BME280;11289;52.524;13.694;2022-10-30T06:45:25;101161.38;;;12.13;91.96
22241;BME280;11289;52.524;13.694;2022-10-30T06:48:02;101139.44;;;12.02;91.82
22241;BME280;11289;52.524;13.694;2022-10-30T06:50:41;101169.06;;;12.16;91.32
22241;BME280;11289;52.524;13.694;2022-10-30T06:53:10;101148.59;;;12.12;91.50
22241;BME280;11289;52.524;13.694;2022-10-30T06:55:40;101179.69;;;12.31;91.18
22241;BME280;11289;52.524;13.694;2022-10-30T06:58:32;101187.84;;;12.54;91.51
22241;BME280;11289;52.524;13.694;2022-10-30T07:01:08;101155.59;;;12.35;91.12
22241;BME280;11289;52.524;13.694;2022-10-30T07:03:40;101166.56;;;12.49;90.73
22241;BME280;11289;52.524;13.694;2022-10-30T07:06:07;101148.72;;;12.42;91.17
22241;BME280;11289;52.524;13.694;2022-10-30T07:08:33;101142.97;;;12.47;90.81
22241;BME280;11289;52.524;13.694;2022-10-30T07:10:59;101139.84;;;12.48;90.69
22241;BME280;11289;52.524;13.694;2022-10-30T07:13:33;101143.28;;;12.54;90.37
22241;BME280;11289;52.524;13.694;2022-10-30T07:16:01;101150.97;;;12.57;90.50
22241;BME280;11289;52.524;13.694;2022-10-30T07:18:38;101153.28;;;12.55;90.51
22241;BME280;11289;52.524;13.694;2022-10-30T07:21:14;101184.19;;;12.80;90.74
22241;BME280;11289;52.524;13.694;2022-10-30T07:23:50;101168.63;;;12.70;90.73
22241;BME280;11289;52.524;13.694;2022-10-30T07:26:28;101207.09;;;12.94;90.34
22241;BME280;11289;52.524;13.694;2022-10-30T07:29:04;101224.56;;;13.12;90.34
22241;BME280;11289;52.524;13.694;2022-10-30T07:31:35;101226.66;;;13.24;90.24
22241;BME280;11289;52.524;13.694;2022-10-30T07:34:14;101196.25;;;13.01;89.98
22241;BME280;11289;52.524;13.694;2022-10-30T07:36:40;101237.63;;;13.29;90.61
22241;BME280;11289;52.524;13.694;2022-10-30T07:39:06;101197.19;;;13.05;90.54
22241;BME280;11289;52.524;13.694;2022-10-30T07:41:31;101221.75;;;13.21;90.32
22241;BME280;11289;52.524;13.694;2022-10-30T07:43:57;101221.41;;;13.22;90.36
22241;BME280;11289;52.524;13.694;2022-10-30T07:46:22;101206.84;;;13.17;89.94
22241;BME280;11289;52.524;13.694;2022-10-30T07:49:29;101214.19;;;13.21;89.85
22241;BME280;11289;52.524;13.694;2022-10-30T07:52:03;101180.13;;;13.16;89.47
22241;BME280;11289;52.524;13.694;2022-10-30T07:54:29;101194.16;;;13.28;89.92
22241;BME280;11289;52.524;13.694;2022-10-30T07:57:05;101215.22;;;13.55;90.86
22241;BME280;11289;52.524;13.694;2022-10-30T07:59:31;101218.03;;;13.76;90.80
22241;BME280;11289;52.524;13.694;2022-10-30T08:02:13;101215.97;;;13.95;89.68
22241;BME280;11289;52.524;13.694;2022-10-30T08:04:48;101231.09;;;14.15;90.40
22241;BME280;11289;52.524;13.694;2022-10-30T08:07:13;101192.00;;;14.15;89.19
22241;BME280;11289;52.524;13.694;2022-10-30T08:09:39;101219.50;;;14.46;88.34
22241;BME280;11289;52.524;13.694;2022-10-30T08:12:05;101219.69;;;14.62;87.94
22241;BME280;11289;52.524;13.694;2022-10-30T08:14:31;101220.31;;;14.68;87.74
22241;BME280;11289;52.524;13.694;2022-10-30T08:16:56;101220.13;;;14.85;88.77
22241;BME280;11289;52.524;13.694;2022-10-30T08:19:22;101213.63;;;15.06;87.08
22241;BME280;11289;52.524;13.694;2022-10-30T08:21:47;101189.06;;;15.11;86.26
22241;BME280;11289;52.524;13.694;2022-10-30T08:24:15;101184.19;;;15.33;86.50
22241;BME280;11289;52.524;13.694;2022-10-30T08:26:41;101208.19;;;15.59;84.83
22241;BME280;11289;52.524;13.694;2022-10-30T08:29:08;101208.06;;;15.80;83.16
22241;BME280;11289;52.524;13.694;2022-10-30T08:31:33;101205.50;;;15.87;84.53
22241;BME280;11289;52.524;13.694;2022-10-30T08:33:59;101208.94;;;16.09;81.32
22241;BME280;11289;52.524;13.694;2022-10-30T08:36:24;101198.59;;;16.09;80.38
22241;BME280;11289;52.524;13.694;2022-10-30T08:38:50;101199.38;;;16.10;80.78
22241;BME280;11289;52.524;13.694;2022-10-30T08:41:16;101219.31;;;16.21;79.49
22241;BME280;11289;52.524;13.694;2022-10-30T08:43:42;101199.69;;;16.21;79.83
22241;BME280;11289;52.524;13.694;2022-10-30T08:46:09;101219.06;;;16.26;79.84
22241;BME280;11289;52.524;13.694;2022-10-30T08:48:35;101235.53;;;16.27;78.57
22241;BME280;11289;52.524;13.694;2022-10-30T08:51:05;101242.91;;;16.19;79.42
22241;BME280;11289;52.524;13.694;2022-10-30T08:53:31;101216.34;;;16.01;79.51
22241;BME280;11289;52.524;13.694;2022-10-30T08:55:57;101218.69;;;15.99;78.72
22241;BME280;11289;52.524;13.694;2022-10-30T08:58:22;101227.31;;;15.94;79.21
22241;BME280;11289;52.524;13.694;2022-10-30T09:00:48;101231.75;;;15.95;80.42
22241;BME280;11289;52.524;13.694;2022-10-30T09:03:13;101221.72;;;15.94;80.24
22241;BME280;11289;52.524;13.694;2022-10-30T09:05:38;101224.81;;;16.05;80.42
22241;BME280;11289;52.524;13.694;2022-10-30T09:08:09;101219.56;;;16.15;80.52
22241;BME280;11289;52.524;13.694;2022-10-30T09:10:34;101232.13;;;16.34;79.79
22241;BME280;11289;52.524;13.694;2022-10-30T09:12:59;101215.09;;;16.55;79.17
22241;BME280;11289;52.524;13.694;2022-10-30T09:15:27;101229.94;;;16.56;79.46
22241;BME280;11289;52.524;13.694;2022-10-30T09:18:00;101207.72;;;16.63;78.19
22241;BME280;11289;52.524;13.694;2022-10-30T09:20:28;101213.31;;;16.79;77.72
22241;BME280;11289;52.524;13.694;2022-10-30T09:22:54;101227.72;;;17.05;79.72
22241;BME280;11289;52.524;13.694;2022-10-30T09:25:19;101214.31;;;17.15;79.16
22241;BME280;11289;52.524;13.694;2022-10-30T09:27:46;101232.53;;;17.53;75.56
22241;BME280;11289;52.524;13.694;2022-10-30T09:30:12;101224.78;;;17.66;74.92
22241;BME280;11289;52.524;13.694;2022-10-30T09:32:38;101245.47;;;18.09;74.78
22241;BME280;11289;52.524;13.694;2022-10-30T09:35:05;101241.44;;;18.26;72.60
22241;BME280;11289;52.524;13.694;2022-10-30T09:37:37;101221.69;;;18.42;70.68
22241;BME280;11289;52.524;13.694;2022-10-30T09:40:04;101240.31;;;18.70;69.38
22241;BME280;11289;52.524;13.694;2022-10-30T09:45:45;101234.44;;;19.21;69.59
22241;BME280;11289;52.524;13.694;2022-10-30T09:54:09;101207.94;;;19.72;65.05
22241;BME280;11289;52.524;13.694;2022-10-30T10:05:21;101209.88;;;20.59;60.95
22241;BME280;11289;52.524;13.694;2022-10-30T10:07:53;101211.69;;;20.71;61.02
22241;BME280;11289;52.524;13.694;2022-10-30T10:10:36;101196.41;;;20.76;58.26
22241;BME280;11289;52.524;13.694;2022-10-30T10:13:04;101208.25;;;20.92;59.49
22241;BME280;11289;52.524;13.694;2022-10-30T10:15:47;101196.28;;;21.06;59.05
22241;BME280;11289;52.524;13.694;2022-10-30T10:18:20;101202.53;;;21.26;58.51
22241;BME280;11289;52.524;13.694;2022-10-30T10:20:50;101199.44;;;20.97;58.13
22241;BME280;11289;52.524;13.694;2022-10-30T10:23:18;101209.69;;;21.16;59.37
22241;BME280;11289;52.524;13.694;2022-10-30T10:25:57;101179.94;;;21.26;60.06
22241;BME280;11289;52.524;13.694;2022-10-30T10:28:59;101207.41;;;21.85;57.84
22241;BME280;11289;52.524;13.694;2022-10-30T10:40:02;101194.59;;;22.02;58.32
22241;BME280;11289;52.524;13.694;2022-10-30T10:42:53;101183.25;;;21.98;56.38
22241;BME280;11289;52.524;13.694;2022-10-30T10:45:27;101196.28;;;22.21;56.62
22241;BME280;11289;52.524;13.694;2022-10-30T10:48:24;101199.22;;;22.35;55.22
22241;BME280;11289;52.524;13.694;2022-10-30T10:51:09;101181.84;;;22.40;56.05
22241;BME280;11289;52.524;13.694;2022-10-30T10:56:48;101188.31;;;22.45;54.00
22241;BME280;11289;52.524;13.694;2022-10-30T10:59:29;101185.91;;;22.39;54.66
22241;BME280;11289;52.524;13.694;2022-10-30T11:05:23;101187.22;;;22.82;53.82
22241;BME280;11289;52.524;13.694;2022-10-30T11:07:51;101190.44;;;22.80;53.40
22241;BME280;11289;52.524;13.694;2022-10-30T11:10:22;101199.72;;;22.81;54.44
22241;BME280;11289;52.524;13.694;2022-10-30T11:12:48;101177.09;;;22.88;52.80
22241;BME280;11289;52.524;13.694;2022-10-30T11:15:55;101183.59;;;23.10;51.86
22241;BME280;11289;52.524;13.694;2022-10-30T11:18:22;101170.22;;;23.03;51.96
22241;BME280;11289;52.524;13.694;2022-10-30T11:21:00;101175.50;;;23.08;52.22
22241;BME280;11289;52.524;13.694;2022-10-30T11:26:00;101160.53;;;23.04;52.08
22241;BME280;11289;52.524;13.694;2022-10-30T11:36:45;101148.81;;;23.02;51.91
22241;BME280;11289;52.524;13.694;2022-10-30T11:41:42;101154.47;;;23.09;52.62
22241;BME280;11289;52.524;13.694;2022-10-30T11:44:10;101166.63;;;23.21;53.39
22241;BME280;11289;52.524;13.694;2022-10-30T11:46:36;101159.34;;;23.20;52.52
22241;BME280;11289;52.524;13.694;2022-10-30T11:49:02;101178.75;;;23.36;52.56
22241;BME280;11289;52.524;13.694;2022-10-30T11:51:36;101176.31;;;23.23;52.27
22241;BME280;11289;52.524;13.694;2022-10-30T11:54:03;101185.25;;;23.25;52.81
22241;BME280;11289;52.524;13.694;2022-10-30T11:56:30;101181.19;;;23.23;52.96
22241;BME280;11289;52.524;13.694;2022-10-30T11:58:58;101187.66;;;23.12;52.69
22241;BME280;11289;52.524;13.694;2022-10-30T12:01:30;101191.28;;;23.02;52.40
22241;BME280;11289;52.524;13.694;2022-10-30T12:04:11;101182.75;;;22.81;53.52
22241;BME280;11289;52.524;13.694;2022-10-30T12:06:37;101179.88;;;22.63;53.63
22241;BME280;11289;52.524;13.694;2022-10-30T12:09:09;101177.03;;;22.52;53.89
22241;BME280;11289;52.524;13.694;2022-10-30T12:11:37;101167.25;;;22.35;54.09
22241;BME280;11289;52.524;13.694;2022-10-30T12:14:04;101172.88;;;22.24;55.39
22241;BME280;11289;52.524;13.694;2022-10-30T12:16:30;101171.16;;;22.01;55.24
22241;BME280;11289;52.524;13.694;2022-10-30T12:21:26;101155.25;;;21.75;55.85
22241;BME280;11289;52.524;13.694;2022-10-30T12:23:58;101173.81;;;21.69;55.75
22241;BME280;11289;52.524;13.694;2022-10-30T12:26:27;101171.28;;;21.53;57.33
22241;BME280;11289;52.524;13.694;2022-10-30T12:28:57;101172.38;;;21.41;58.04
22241;BME280;11289;52.524;13.694;2022-10-30T12:31:29;101172.72;;;21.36;57.60
22241;BME280;11289;52.524;13.694;2022-10-30T12:34:26;101181.13;;;21.25;57.66
22241;BME280;11289;52.524;13.694;2022-10-30T12:40:26;101181.78;;;21.08;58.18
22241;BME280;11289;52.524;13.694;2022-10-30T12:45:38;101184.09;;;20.98;58.50
22241;BME280;11289;52.524;13.694;2022-10-30T12:53:42;101165.38;;;20.76;57.58
22241;BME280;11289;52.524;13.694;2022-10-30T12:56:17;101158.06;;;20.71;57.92
22241;BME280;11289;52.524;13.694;2022-10-30T12:58:51;101159.69;;;20.72;58.99
22241;BME280;11289;52.524;13.694;2022-10-30T13:01:32;101161.28;;;20.69;58.92
22241;BME280;11289;52.524;13.694;2022-10-30T13:06:42;101141.34;;;20.55;59.04
22241;BME280;11289;52.524;13.694;2022-10-30T13:09:24;101162.75;;;20.60;56.90
22241;BME280;11289;52.524;13.694;2022-10-30T13:11:56;101170.03;;;20.61;57.87
22241;BME280;11289;52.524;13.694;2022-10-30T13:14:55;101168.78;;;20.58;56.54
22241;BME280;11289;52.524;13.694;2022-10-30T13:17:22;101165.53;;;20.56;56.83
22241;BME280;11289;52.524;13.694;2022-10-30T13:19:48;101160.28;;;20.55;58.01
22241;BME280;11289;52.524;13.694;2022-10-30T13:22:35;101169.19;;;20.57;57.44
22241;BME280;11289;52.524;13.694;2022-10-30T13:30:19;101161.88;;;20.52;56.84
22241;BME280;11289;52.524;13.694;2022-10-30T13:36:05;101165.44;;;20.49;56.58
22241;BME280;11289;52.524;13.694;2022-10-30T13:38:45;101170.66;;;20.47;56.29
22241;BME280;11289;52.524;13.694;2022-10-30T13:44:02;101161.34;;;20.43;56.62
22241;BME280;11289;52.524;13.694;2022-10-30T13:54:39;101161.63;;;20.30;57.68
22241;BME280;11289;52.524;13.694;2022-10-30T13:59:57;101165.19;;;20.27;57.29
22241;BME280;11289;52.524;13.694;2022-10-30T14:08:37;101169.09;;;20.15;57.79
22241;BME280;11289;52.524;13.694;2022-10-30T14:11:05;101171.09;;;20.15;58.20
22241;BME280;11289;52.524;13.694;2022-10-30T14:16:04;101171.06;;;20.11;58.03
22241;BME280;11289;52.524;13.694;2022-10-30T14:19:00;101171.06;;;20.11;58.17
22241;BME280;11289;52.524;13.694;2022-10-30T14:24:33;101165.34;;;20.04;59.26
22241;BME280;11289;52.524;13.694;2022-10-30T14:29:37;101174.91;;;19.99;58.91
22241;BME280;11289;52.524;13.694;2022-10-30T14:34:44;101170.81;;;19.93;59.27
22241;BME280;11289;52.524;13.694;2022-10-30T14:37:11;101172.38;;;19.91;59.12
22241;BME280;11289;52.524;13.694;2022-10-30T14:39:41;101163.41;;;19.81;59.48
22241;BME280;11289;52.524;13.694;2022-10-30T14:47:23;101172.16;;;19.76;60.06
22241;BME280;11289;52.524;13.694;2022-10-30T14:49:59;101168.00;;;19.66;60.77
22241;BME280;11289;52.524;13.694;2022-10-30T14:55:21;101171.78;;;19.51;63.06
22241;BME280;11289;52.524;13.694;2022-10-30T15:08:40;101174.13;;;18.95;65.09
22241;BME280;11289;52.524;13.694;2022-10-30T15:13:50;101174.06;;;18.72;66.50
22241;BME280;11289;52.524;13.694;2022-10-30T15:16:17;101174.69;;;18.62;66.95
22241;BME280;11289;52.524;13.694;2022-10-30T15:18:46;101172.03;;;18.50;67.48